Time;durP1;ratioP1;P1;durP2;ratioP2;P2;SDS_P1;SDS_P2;PMS_P1;PMS_P2;Temp;Humidity;BMP_temperature;BMP_pressure;BME280_temperature;BME280_humidity;BME280_pressure;Samples;Min_cycle;Max_cycle;Signal;HPM_P1;HPM_P2
2021/01/27 00:00:49;;;;;;;26.35;6.35;;;15.90;99.90;;;;;;5158967;27;20395;-84
2021/01/27 00:03:18;;;;;;;27.60;6.95;;;15.90;99.90;;;;;;5156292;27;20043;-83
2021/01/27 00:05:50;;;;;;;32.50;7.37;;;15.90;99.90;;;;;;5159937;27;20054;-83
2021/01/27 00:08:19;;;;;;;24.25;6.32;;;15.80;99.90;;;;;;5159980;27;20481;-83
2021/01/27 00:10:47;;;;;;;28.73;6.50;;;15.80;99.90;;;;;;5160523;27;20056;-83
2021/01/27 00:13:18;;;;;;;25.75;6.65;;;15.80;99.90;;;;;;5158680;27;20028;-83
2021/01/27 00:15:47;;;;;;;26.02;6.28;;;15.80;99.90;;;;;;5165152;27;20030;-83
2021/01/27 00:18:17;;;;;;;26.00;6.90;;;;;;;;;;5145406;27;20437;-84
2021/01/27 00:20:47;;;;;;;23.27;9.52;;;15.70;99.90;;;;;;5166988;27;20027;-83
2021/01/27 00:23:15;;;;;;;26.02;6.70;;;;;;;;;;5163855;27;20106;-83
2021/01/27 00:25:43;;;;;;;30.02;7.50;;;;;;;;;;5166102;27;20078;-83
2021/01/27 00:28:12;;;;;;;26.33;7.90;;;;;;;;;;5169009;27;20041;-83
2021/01/27 00:30:44;;;;;;;29.95;10.55;;;;;;;;;;5164616;27;20106;-84
2021/01/27 00:33:26;;;;;;;24.37;6.55;;;;;;;;;;4441939;31;20170;-84
2021/01/27 00:35:54;;;;;;;26.45;7.82;;;15.50;99.90;;;;;;4451245;32;20387;-85
2021/01/27 00:38:25;;;;;;;27.80;6.97;;;15.60;99.90;;;;;;4441610;32;20041;-84
2021/01/27 00:40:55;;;;;;;27.55;8.32;;;15.50;99.90;;;;;;4438893;32;20080;-84
2021/01/27 00:43:25;;;;;;;23.85;7.37;;;15.50;99.90;;;;;;4439977;32;20042;-84
2021/01/27 00:45:53;;;;;;;33.30;22.23;;;15.40;99.90;;;;;;4451678;32;20110;-84
2021/01/27 00:48:22;;;;;;;31.35;22.98;;;15.40;99.90;;;;;;4455139;32;20181;-84
2021/01/27 00:50:51;;;;;;;25.92;21.42;;;15.30;99.90;;;;;;4436693;32;20199;-84
2021/01/27 00:53:20;;;;;;;29.15;22.25;;;15.30;99.90;;;;;;4440782;32;20450;-85
2021/01/27 00:55:49;;;;;;;19.95;7.28;;;15.30;99.90;;;;;;4450701;32;20050;-84
2021/01/27 00:58:18;;;;;;;24.40;7.37;;;15.30;99.90;;;;;;4447811;32;20101;-84
2021/01/27 01:00:47;;;;;;;32.53;21.50;;;15.20;99.90;;;;;;4447786;32;20117;-84
2021/01/27 01:03:16;;;;;;;24.00;6.50;;;15.00;99.90;;;;;;4443171;32;20153;-84
2021/01/27 01:05:46;;;;;;;41.08;24.23;;;15.00;99.90;;;;;;4443795;32;20613;-84
2021/01/27 01:08:19;;;;;;;28.42;17.15;;;14.80;99.90;;;;;;4445073;32;20235;-85
2021/01/27 01:10:53;;;;;;;28.02;21.37;;;14.70;99.90;;;;;;4439862;32;20057;-84
2021/01/27 01:13:24;;;;;;;26.48;20.65;;;14.70;99.90;;;;;;4445457;32;20798;-84
2021/01/27 01:15:53;;;;;;;33.92;21.75;;;14.50;99.90;;;;;;4452731;32;20191;-84
2021/01/27 01:18:21;;;;;;;30.40;21.60;;;14.50;99.90;;;;;;4437478;32;20702;-84
2021/01/27 01:20:50;;;;;;;30.40;21.77;;;14.50;99.90;;;;;;4435801;32;20555;-85
2021/01/27 01:23:21;;;;;;;26.87;23.33;;;14.50;99.90;;;;;;4449814;32;20396;-84
2021/01/27 01:25:50;;;;;;;26.25;20.42;;;14.30;99.90;;;;;;4442711;32;20105;-84
2021/01/27 01:28:19;;;;;;;23.35;20.50;;;14.30;99.90;;;;;;4452205;32;20085;-84
2021/01/27 01:30:48;;;;;;;23.35;20.90;;;14.20;99.90;;;;;;4441611;32;20135;-84
2021/01/27 01:33:26;;;;;;;26.27;22.08;;;14.20;99.90;;;;;;4451799;32;20466;-84
2021/01/27 01:35:55;;;;;;;31.30;22.15;;;14.20;99.90;;;;;;4444766;32;20098;-85
2021/01/27 01:38:24;;;;;;;42.78;22.37;;;14.20;99.90;;;;;;4439601;32;20110;-85
2021/01/27 01:40:57;;;;;;;28.42;7.78;;;14.10;99.90;;;;;;4442536;32;20042;-84
2021/01/27 01:43:37;;;;;;;25.05;14.10;;;14.10;99.90;;;;;;4443245;32;20074;-84
2021/01/27 01:46:19;;;;;;;22.13;7.93;;;14.10;99.90;;;;;;4431998;32;20145;-84
2021/01/27 01:48:56;;;;;;;27.08;24.40;;;14.00;99.90;;;;;;4431894;32;20066;-84
2021/01/27 01:51:30;;;;;;;26.30;23.67;;;14.00;99.90;;;;;;4431165;32;20124;-84
2021/01/27 01:54:00;;;;;;;;;;;13.90;99.90;;;;;;4437504;32;20703;-84
2021/01/27 01:56:35;;;;;;;34.17;29.73;;;14.00;99.90;;;;;;4432952;32;19996;-84
2021/01/27 01:59:06;;;;;;;36.10;24.40;;;14.20;99.90;;;;;;4424481;32;20120;-84
2021/01/27 02:01:34;;;;;;;30.23;23.40;;;;;;;;;;4431448;32;20124;-84
2021/01/27 02:04:04;;;;;;;32.25;24.00;;;14.20;99.90;;;;;;4437014;32;20139;-85
2021/01/27 02:06:32;;;;;;;32.75;26.45;;;14.20;99.90;;;;;;4431247;32;20120;-84
2021/01/27 02:09:00;;;;;;;29.23;26.17;;;14.10;99.90;;;;;;4431603;32;20146;-84
2021/01/27 02:11:28;;;;;;;34.28;26.45;;;;;;;;;;4435990;32;20157;-84
2021/01/27 02:14:00;;;;;;;37.10;27.60;;;;;;;;;;4432484;32;20230;-85
2021/01/27 02:16:34;;;;;;;33.88;25.60;;;;;;;;;;4440202;32;20106;-85
2021/01/27 02:19:18;;;;;;;29.95;24.85;;;;;;;;;;4444770;32;20438;-85
2021/01/27 02:22:13;;;;;;;30.80;25.43;;;;;;;;;;4436438;32;20093;-85
2021/01/27 02:25:00;;;;;;;26.35;7.47;;;;;;;;;;4434846;32;20121;-84
2021/01/27 02:27:32;;;;;;;21.05;7.05;;;;;;;;;;4441394;32;20091;-84
2021/01/27 02:30:12;;;;;;;34.50;25.58;;;;;;;;;;4444744;32;20444;-84
2021/01/27 02:32:54;;;;;;;30.58;8.65;;;;;;;;;;4440596;32;20050;-84
2021/01/27 02:35:23;;;;;;;25.52;20.55;;;;;;;;;;4439234;32;20053;-85
2021/01/27 02:38:00;;;;;;;23.25;12.60;;;;;;;;;;4442422;32;20097;-85
2021/01/27 02:40:32;;;;;;;22.95;7.75;;;;;;;;;;4446127;32;20054;-85
2021/01/27 02:43:14;;;;;;;17.60;7.22;;;;;;;;;;4441688;32;20127;-84
2021/01/27 02:45:48;;;;;;;37.92;34.42;;;;;;;;;;4441025;32;20109;-84
2021/01/27 02:48:37;;;;;;;25.45;19.05;;;;;;;;;;4439638;32;20061;-84
2021/01/27 02:51:11;;;;;;;25.83;15.73;;;;;;;;;;4435048;32;20357;-84
2021/01/27 02:53:41;;;;;;;29.42;26.40;;;;;;;;;;4436117;32;20408;-86
2021/01/27 02:56:20;;;;;;;40.12;31.98;;;;;;;;;;4442391;32;20139;-84
2021/01/27 02:58:58;;;;;;;29.52;26.48;;;;;;;;;;4442068;32;20502;-86
2021/01/27 03:01:52;;;;;;;18.15;14.15;;;;;;;;;;4437891;32;20168;-84
2021/01/27 03:04:28;;;;;;;40.65;36.25;;;;;;;;;;4435574;32;20072;-84
2021/01/27 03:06:58;;;;;;;18.08;7.30;;;;;;;;;;4437461;32;20046;-84
2021/01/27 03:09:46;;;;;;;28.35;25.65;;;;;;;;;;4436952;32;20063;-84
2021/01/27 07:02:49;;;;;;;23.50;13.38;;;12.30;99.90;;;;;;4454474;28;20112;-82
2021/01/27 07:05:39;;;;;;;25.25;11.60;;;12.30;99.90;;;;;;4285316;33;20447;-83
2021/01/27 07:08:15;;;;;;;27.73;11.75;;;12.20;99.90;;;;;;4292718;33;20073;-83
2021/01/27 07:10:55;;;;;;;24.25;11.90;;;12.20;99.90;;;;;;4295528;33;20104;-82
2021/01/27 07:13:32;;;;;;;26.80;11.70;;;12.30;99.90;;;;;;4286455;33;20100;-83
2021/01/27 07:16:11;;;;;;;26.77;13.07;;;12.40;99.90;;;;;;4294945;33;20152;-82
2021/01/27 07:19:05;;;;;;;23.42;12.13;;;12.40;99.90;;;;;;4298244;33;20425;-83
2021/01/27 07:22:00;;;;;;;36.85;14.43;;;12.60;99.90;;;;;;4293870;33;20087;-83
2021/01/27 07:24:42;;;;;;;26.15;13.25;;;12.40;99.90;;;;;;4282747;33;20123;-83
2021/01/27 07:27:22;;;;;;;23.55;12.93;;;12.50;99.90;;;;;;4288315;33;20080;-83
2021/01/27 07:30:11;;;;;;;30.73;12.63;;;12.60;99.90;;;;;;4281731;33;20083;-84
2021/01/27 07:33:02;;;;;;;20.35;10.63;;;12.60;99.90;;;;;;4281663;33;20109;-83
2021/01/27 07:36:00;;;;;;;17.23;9.88;;;12.40;99.90;;;;;;4286799;33;20187;-83
2021/01/27 07:38:32;;;;;;;16.90;9.30;;;12.20;99.90;;;;;;4281449;33;20096;-82
2021/01/27 07:41:09;;;;;;;19.37;8.73;;;12.20;99.90;;;;;;4288147;33;20097;-83
2021/01/27 07:44:03;;;;;;;17.37;8.50;;;12.30;99.90;;;;;;4280688;33;20128;-83
2021/01/27 07:46:42;;;;;;;20.67;10.65;;;12.50;99.90;;;;;;4282307;33;20131;-83
2021/01/27 07:49:14;;;;;;;17.33;9.98;;;12.70;99.90;;;;;;4283048;33;20476;-83
2021/01/27 07:52:04;;;;;;;19.02;12.18;;;13.00;99.90;;;;;;4285560;33;20424;-83
2021/01/27 07:54:43;;;;;;;15.50;13.90;;;12.90;99.90;;;;;;4283083;33;20419;-83
2021/01/27 07:57:27;;;;;;;14.95;13.43;;;12.90;99.90;;;;;;4288158;33;20069;-83
2021/01/27 08:00:08;;;;;;;15.63;12.80;;;13.00;99.90;;;;;;4286575;33;20127;-83
2021/01/27 08:02:58;;;;;;;20.70;18.80;;;13.30;99.90;;;;;;4279996;33;20136;-83
2021/01/27 08:05:32;;;;;;;20.65;18.85;;;13.70;99.90;;;;;;4276760;33;20425;-84
2021/01/27 08:08:06;;;;;;;20.15;18.02;;;14.20;99.90;;;;;;4288352;33;20049;-83
2021/01/27 08:10:35;;;;;;;24.65;22.87;;;14.70;99.90;;;;;;4288459;33;20065;-84
2021/01/27 08:13:16;;;;;;;23.98;22.10;;;15.20;99.90;;;;;;4279486;33;20069;-83
2021/01/27 08:16:07;;;;;;;24.20;22.30;;;15.50;99.90;;;;;;4285418;33;20060;-84
2021/01/27 08:18:55;;;;;;;22.98;21.17;;;15.90;99.50;;;;;;4267744;33;20116;-84
2021/01/27 08:21:27;;;;;;;21.67;20.08;;;16.60;98.40;;;;;;4283033;33;20524;-84
2021/01/27 08:23:56;;;;;;;10.50;5.60;;;17.80;95.40;;;;;;4280291;33;20096;-85
2021/01/27 08:26:42;;;;;;;19.60;14.75;;;19.10;95.90;;;;;;4283809;33;20416;-85
2021/01/27 08:29:26;;;;;;;10.82;5.70;;;21.00;94.90;;;;;;4287575;33;20601;-85
2021/01/27 08:32:32;;;;;;;13.03;5.50;;;22.50;91.40;;;;;;4284081;33;20392;-85
2021/01/27 08:35:05;;;;;;;17.40;15.27;;;24.10;80.80;;;;;;4283935;33;20100;-85
2021/01/27 08:37:35;;;;;;;15.07;13.52;;;25.60;81.60;;;;;;4284627;33;20094;-87
2021/01/27 08:40:32;;;;;;;11.07;4.20;;;26.50;82.60;;;;;;4289179;33;20077;-85
2021/01/27 08:43:02;;;;;;;8.93;3.87;;;27.70;54.10;;;;;;4290387;33;20049;-86
2021/01/27 08:45:33;;;;;;;7.68;3.40;;;;;;;;;;4296889;33;20061;-85
2021/01/27 08:48:03;;;;;;;8.77;3.20;;;;;;;;;;4282935;33;20057;-85
2021/01/27 08:50:34;;;;;;;8.63;3.55;;;;;;;;;;4283193;33;20045;-85
2021/01/27 08:53:07;;;;;;;7.20;3.20;;;;;;;;;;4273308;33;20064;-85
2021/01/27 08:55:35;;;;;;;9.43;3.30;;;;;;;;;;4287071;33;20683;-86
2021/01/27 08:58:27;;;;;;;10.65;3.12;;;;;;;;;;4289806;33;20590;-85
2021/01/27 09:01:00;;;;;;;6.70;3.35;;;;;;;;;;4278214;33;20850;-85
2021/01/27 09:03:38;;;;;;;7.78;3.33;;;;;;;;;;4280834;33;20135;-85
2021/01/27 09:06:28;;;;;;;8.05;3.60;;;;;;;;;;4287417;33;20113;-86
2021/01/27 09:09:07;;;;;;;9.48;3.22;;;;;;;;;;4283775;33;20448;-86
2021/01/27 09:11:36;;;;;;;6.68;3.17;;;;;;;;;;4281664;33;20093;-86
2021/01/27 09:14:08;;;;;;;10.32;3.62;;;;;;;;;;4284087;33;20042;-85
2021/01/27 09:16:37;;;;;;;9.82;3.30;;;;;;;;;;4288569;33;20411;-86
2021/01/27 09:19:10;;;;;;;9.00;3.70;;;;;;;;;;4296113;33;20440;-86
2021/01/27 09:21:39;;;;;;;7.25;3.00;;;;;;;;;;4286503;33;20052;-84
2021/01/27 09:24:23;;;;;;;6.78;3.10;;;;;;;;;;4288394;33;20089;-84
2021/01/27 09:26:52;;;;;;;7.55;3.20;;;;;;;;;;4294862;33;20101;-84
2021/01/27 09:29:23;;;;;;;7.72;3.10;;;;;;;;;;4295924;33;20477;-84
2021/01/27 09:31:51;;;;;;;5.03;2.72;;;;;;;;;;4288550;33;20053;-84
2021/01/27 09:34:33;;;;;;;8.05;3.25;;;;;;;;;;4283790;33;20054;-84
2021/01/27 09:37:04;;;;;;;5.77;3.13;;;;;;;;;;4284512;33;20385;-84
2021/01/27 09:39:52;;;;;;;6.65;3.28;;;;;;;;;;4464869;31;20072;-85
2021/01/27 09:42:27;;;;;;;8.90;3.40;;;;;;;;;;4453235;32;20165;-84
2021/01/27 09:45:04;;;;;;;5.62;3.00;;;;;;;;;;4447047;32;20101;-85
2021/01/27 09:47:34;;;;;;;6.45;3.10;;;;;;;;;;4454103;32;20057;-84
2021/01/27 09:50:03;;;;;;;9.77;3.15;;;;;;;;;;4455106;32;20117;-85
2021/01/27 09:52:32;;;;;;;6.60;3.10;;;;;;;;;;4451953;32;20092;-85
2021/01/27 09:55:09;;;;;;;7.32;3.37;;;;;;;;;;4452215;32;20405;-85
2021/01/27 09:57:49;;;;;;;8.98;3.20;;;;;;;;;;4457322;32;20162;-85
2021/01/27 10:00:28;;;;;;;7.10;3.42;;;;;;;;;;4448828;32;20061;-85
2021/01/27 10:03:10;;;;;;;9.13;3.67;;;;;;;;;;4453461;32;20057;-85
2021/01/27 10:05:41;;;;;;;7.95;3.30;;;;;;;;;;4449872;32;20408;-84
2021/01/27 10:08:19;;;;;;;7.53;3.47;;;;;;;;;;4453670;32;20125;-84
2021/01/27 10:11:04;;;;;;;10.88;3.90;;;;;;;;;;4448065;32;20069;-84
2021/01/27 10:13:33;;;;;;;10.82;4.15;;;;;;;;;;4449081;32;20153;-85
2021/01/27 10:16:04;;;;;;;9.05;4.05;;;;;;;;;;4454503;32;20235;-85
2021/01/27 10:18:33;;;;;;;8.70;3.60;;;;;;;;;;4449165;32;20131;-85
2021/01/27 10:21:02;;;;;;;7.57;3.87;;;;;;;;;;4446317;32;20364;-84
2021/01/27 10:23:36;;;;;;;11.07;4.10;;;;;;;;;;4451086;32;20557;-84
2021/01/27 10:26:23;;;;;;;11.63;4.45;;;;;;;;;;4453616;32;20081;-84
2021/01/27 10:29:10;;;;;;;8.05;4.05;;;;;;;;;;4448483;32;20159;-84
2021/01/27 10:31:40;;;;;;;11.12;4.37;;;;;;;;;;4446069;32;20142;-85
2021/01/27 10:34:08;;;;;;;9.32;4.45;;;;;;;;;;4442394;32;20067;-84
2021/01/27 10:36:39;;;;;;;10.27;3.70;;;;;;;;;;4443302;32;20118;-84
2021/01/27 10:39:19;;;;;;;10.73;4.07;;;;;;;;;;4443513;32;20081;-84
2021/01/27 10:41:49;;;;;;;8.73;3.50;;;;;;;;;;4444736;32;20151;-85
2021/01/27 10:44:24;;;;;;;13.95;4.18;;;;;;;;;;4448439;32;20057;-84
2021/01/27 10:46:53;;;;;;;9.02;4.00;;;;;;;;;;4453345;32;20049;-85
2021/01/27 10:49:22;;;;;;;9.27;3.87;;;;;;;;;;4442252;32;20110;-84
2021/01/27 10:51:50;;;;;;;10.90;4.12;;;;;;;;;;4444491;32;20145;-85
2021/01/27 10:54:21;;;;;;;12.20;4.40;;;;;;;;;;4439532;32;20054;-84
2021/01/27 10:56:53;;;;;;;11.45;4.78;;;;;;;;;;4442884;32;20483;-84
2021/01/27 10:59:22;;;;;;;10.68;3.85;;;;;;;;;;4442058;32;20117;-84
2021/01/27 11:01:50;;;;;;;11.90;3.30;;;;;;;;;;4441823;32;20049;-84
2021/01/27 11:04:19;;;;;;;12.20;4.28;;;;;;;;;;4439164;32;20141;-84
2021/01/27 11:06:47;;;;;;;12.30;4.20;;;;;;;;;;4442177;32;20224;-84
2021/01/27 11:09:16;;;;;;;11.48;3.72;;;;;;;;;;4438078;32;20076;-85
2021/01/27 11:11:44;;;;;;;11.18;4.30;;;;;;;;;;4443985;32;20053;-85
2021/01/27 11:14:13;;;;;;;11.32;3.83;;;;;;;;;;4444864;32;20099;-84
2021/01/27 11:16:42;;;;;;;9.25;3.83;;;;;;;;;;4433120;32;20096;-85
2021/01/27 11:19:10;;;;;;;10.98;3.87;;;;;;;;;;4438981;32;20077;-84
2021/01/27 11:21:39;;;;;;;9.43;3.90;;;;;;;;;;4439953;32;20349;-84
2021/01/27 11:24:08;;;;;;;6.95;2.87;;;;;;;;;;4438065;32;20170;-85
2021/01/27 11:26:36;;;;;;;4.78;2.67;;;;;;;;;;4442952;32;20118;-84
2021/01/27 11:29:05;;;;;;;5.95;2.65;;;;;;;;;;4445911;32;20088;-84
2021/01/27 11:31:33;;;;;;;9.23;3.42;;;;;;;;;;4442071;32;20045;-84
2021/01/27 11:34:04;;;;;;;6.70;3.10;;;;;;;;;;4441905;32;20069;-84
2021/01/27 11:36:32;;;;;;;9.80;3.37;;;;;;;;;;4442921;32;20461;-84
2021/01/27 11:39:01;;;;;;;8.68;3.40;;;;;;;;;;4443568;32;20507;-84
2021/01/27 11:41:29;;;;;;;5.32;2.35;;;;;;;;;;4443677;32;20152;-84
2021/01/27 11:43:58;;;;;;;5.22;2.25;;;;;;;;;;4445347;32;20428;-84
2021/01/27 11:46:37;;;;;;;8.02;2.40;;;;;;;;;;4444904;32;20077;-84
2021/01/27 11:49:06;;;;;;;5.57;2.50;;;;;;;;;;4446153;32;20049;-84
2021/01/27 11:51:34;;;;;;;4.95;2.67;;;;;;;;;;4442524;32;20124;-84
2021/01/27 11:54:02;;;;;;;4.05;2.47;;;;;;;;;;4442347;32;20107;-84
2021/01/27 11:56:30;;;;;;;6.10;2.95;;;;;;;;;;4442210;32;20076;-84
2021/01/27 11:58:59;;;;;;;8.15;2.53;;;;;;;;;;4439611;32;20050;-83
2021/01/27 12:01:31;;;;;;;6.70;2.40;;;;;;;;;;4436844;32;20054;-83
2021/01/27 12:04:00;;;;;;;7.47;2.72;;;;;;;;;;4441969;32;20068;-84
2021/01/27 12:06:29;;;;;;;6.40;2.83;;;;;;;;;;4443223;32;20114;-84
2021/01/27 12:08:57;;;;;;;8.32;3.40;;;;;;;;;;4438502;32;20038;-84
2021/01/27 12:11:26;;;;;;;9.57;3.00;;;;;;;;;;4436685;32;20580;-83
2021/01/27 12:13:56;;;;;;;7.15;2.80;;;;;;;;;;4441910;32;20297;-84
2021/01/27 12:16:26;;;;;;;6.68;3.17;;;;;;;;;;4439451;32;20042;-84
2021/01/27 12:18:55;;;;;;;10.38;3.00;;;;;;;;;;4432489;32;20099;-84
2021/01/27 12:21:24;;;;;;;11.05;3.70;;;;;;;;;;4434438;32;20071;-84
2021/01/27 12:23:52;;;;;;;7.12;3.35;;;;;;;;;;4436859;32;20558;-84
2021/01/27 12:26:21;;;;;;;11.00;3.70;;;;;;;;;;4444266;32;20096;-84
2021/01/27 12:28:50;;;;;;;6.95;3.00;;;;;;;;;;4444227;32;20605;-84
2021/01/27 12:31:18;;;;;;;7.37;3.30;;;;;;;;;;4441669;32;20116;-84
2021/01/27 12:33:47;;;;;;;10.98;3.90;;;;;;;;;;4441686;32;20418;-85
2021/01/27 12:36:16;;;;;;;10.63;4.40;;;;;;;;;;4436618;32;20156;-83
2021/01/27 12:38:44;;;;;;;9.30;3.90;;;;;;;;;;4434377;32;20057;-84
2021/01/27 12:41:13;;;;;;;9.63;4.25;;;;;;;;;;4445131;32;20357;-84
2021/01/27 12:43:42;;;;;;;8.43;3.83;;;;;;;;;;4435868;32;20092;-84
2021/01/27 12:46:10;;;;;;;7.78;3.03;;;;;;;;;;4435359;32;20490;-84
2021/01/27 12:48:39;;;;;;;11.82;3.42;;;;;;;;;;4440751;32;20064;-84
2021/01/27 12:51:07;;;;;;;10.38;3.58;;;;;;;;;;4445012;32;20524;-84
2021/01/27 12:53:54;;;;;;;5.37;2.87;;;;;;;;;;4444383;32;20143;-84
2021/01/27 12:56:23;;;;;;;15.07;3.70;;;;;;;;;;4427106;32;20105;-83
2021/01/27 12:58:52;;;;;;;8.40;3.30;;;;;;;;;;4425425;32;20528;-84
2021/01/27 13:01:20;;;;;;;6.30;2.92;;;;;;;;;;4429168;32;20423;-83
2021/01/27 13:03:59;;;;;;;11.38;3.22;;;;;;;;;;4432218;32;20062;-84
2021/01/27 13:06:27;;;;;;;12.43;3.35;;;;;;;;;;4427278;32;20050;-85
2021/01/27 13:08:56;;;;;;;8.10;3.03;;;;;;;;;;4431209;32;20058;-85
2021/01/27 13:11:24;;;;;;;8.35;3.20;;;;;;;;;;4427976;32;20062;-85
2021/01/27 13:13:52;;;;;;;9.95;3.25;;;;;;;;;;4427267;32;20422;-85
2021/01/27 13:16:21;;;;;;;6.12;2.85;;;;;;;;;;4428204;32;20058;-85
2021/01/27 13:18:49;;;;;;;7.57;2.90;;;;;;;;;;4430948;32;20590;-85
2021/01/27 13:21:17;;;;;;;10.60;3.35;;;;;;;;;;4424634;32;20054;-85
2021/01/27 13:23:48;;;;;;;9.68;2.90;;;;;;;;;;4413006;32;20185;-85
2021/01/27 13:26:16;;;;;;;10.00;3.08;;;;;;;;;;4425405;32;20062;-85
2021/01/27 13:28:45;;;;;;;10.43;3.60;;;;;;;;;;4428015;32;20261;-85
2021/01/27 13:31:13;;;;;;;8.90;3.25;;;;;;;;;;4428509;32;20054;-85
2021/01/27 13:33:42;;;;;;;12.37;3.78;;;;;;;;;;4428315;32;20114;-85
2021/01/27 13:36:11;;;;;;;11.93;3.12;;;;;;;;;;4440928;32;20129;-85
2021/01/27 13:38:41;;;;;;;10.50;2.47;;;;;;;;;;4436412;32;20069;-85
2021/01/27 13:41:10;;;;;;;5.85;2.58;;;;;;;;;;4434675;32;20080;-85
2021/01/27 13:43:39;;;;;;;6.78;2.58;;;;;;;;;;4438969;32;20049;-85
2021/01/27 13:46:07;;;;;;;9.38;2.80;;;;;;;;;;4428678;32;20054;-86
2021/01/27 13:48:36;;;;;;;8.27;2.85;;;;;;;;;;4426463;32;20081;-85
2021/01/27 13:51:04;;;;;;;12.73;3.72;;;;;;;;;;4434499;32;20066;-86
2021/01/27 13:53:32;;;;;;;6.35;2.97;;;;;;;;;;4426775;32;20088;-85
2021/01/27 13:56:02;;;;;;;13.30;3.00;;;;;;;;;;4423682;32;20085;-85
2021/01/27 13:58:30;;;;;;;9.48;3.03;;;;;;;;;;4437148;32;20054;-85
2021/01/27 14:00:59;;;;;;;10.85;3.17;;;;;;;;;;4431639;32;20424;-85
2021/01/27 14:03:28;;;;;;;6.43;2.53;;;;;;;;;;4433859;32;20862;-85
2021/01/27 14:05:56;;;;;;;7.93;2.85;;;;;;;;;;4424143;32;20145;-86
2021/01/27 14:08:24;;;;;;;4.65;2.08;;;;;;;;;;4416593;32;20066;-85
2021/01/27 14:10:53;;;;;;;9.13;3.22;;;;;;;;;;4424788;32;20092;-84
2021/01/27 14:13:21;;;;;;;7.10;2.17;;;;;;;;;;4414176;32;20092;-85
2021/01/27 14:15:49;;;;;;;5.50;2.40;;;;;;;;;;4422849;32;20098;-85
2021/01/27 14:18:18;;;;;;;11.32;2.33;;;;;;;;;;4416238;32;20055;-86
2021/01/27 14:20:46;;;;;;;6.75;1.60;;;;;;;;;;4415876;32;20438;-85
2021/01/27 14:23:15;;;;;;;5.07;1.77;;;;;;;;;;4415704;32;20098;-86
2021/01/27 14:25:43;;;;;;;4.45;1.55;;;;;;;;;;4417177;32;20097;-85
2021/01/27 14:28:12;;;;;;;3.45;1.60;;;;;;;;;;4416931;32;20124;-84
2021/01/27 14:30:42;;;;;;;5.78;1.58;;;;;;;;;;4421440;32;20380;-85
2021/01/27 14:33:14;;;;;;;5.57;1.70;;;;;;;;;;4430609;32;20109;-84
2021/01/27 14:35:42;;;;;;;4.00;1.50;;;;;;;;;;4415627;32;20114;-84
2021/01/27 14:38:15;;;;;;;4.65;1.58;;;;;;;;;;4415843;32;20093;-85
2021/01/27 14:40:44;;;;;;;4.62;1.83;;;;;;;;;;4419517;32;20074;-84
2021/01/27 14:43:21;;;;;;;5.18;1.67;;;;;;;;;;4414410;32;20481;-85
2021/01/27 14:45:50;;;;;;;4.37;1.62;;;;;;;;;;4418713;32;20047;-84
2021/01/27 14:48:18;;;;;;;5.72;1.40;;;;;;;;;;4418377;32;20502;-84
2021/01/27 14:50:47;;;;;;;3.83;1.70;;;;;;;;;;4420752;32;20133;-85
2021/01/27 14:53:15;;;;;;;4.47;1.52;;;;;;;;;;4414795;32;20054;-84
2021/01/27 14:55:44;;;;;;;6.32;1.80;;;;;;;;;;4416004;32;20102;-84
2021/01/27 14:58:12;;;;;;;5.15;1.85;;;;;;;;;;4418481;32;20053;-85
2021/01/27 15:00:42;;;;;;;4.18;1.42;;;;;;;;;;4415843;32;20067;-84
2021/01/27 15:03:10;;;;;;;3.65;1.50;;;;;;;;;;4428039;32;20456;-84
2021/01/27 15:05:38;;;;;;;4.15;1.98;;;;;;;;;;4419268;32;20042;-84
2021/01/27 15:08:11;;;;;;;6.43;2.20;;;;;;;;;;4417616;32;20426;-85
2021/01/27 15:10:40;;;;;;;7.05;1.95;;;;;;;;;;4415359;32;20080;-85
2021/01/27 15:13:09;;;;;;;6.78;2.00;;;;;;;;;;4423977;32;20554;-83
2021/01/27 15:15:38;;;;;;;3.75;1.75;;;;;;;;;;4417178;32;20441;-84
2021/01/27 15:18:07;;;;;;;3.90;1.40;;;;;;;;;;4418009;32;20136;-84
2021/01/27 15:20:39;;;;;;;3.50;1.42;;;;;;;;;;4405610;32;20106;-84
2021/01/27 15:23:08;;;;;;;2.75;1.70;;;;;;;;;;4414633;32;20117;-85
2021/01/27 15:25:36;;;;;;;3.17;1.70;;;;;;;;;;4416659;32;20108;-84
2021/01/27 15:28:05;;;;;;;4.75;1.70;;;;;;;;;;4414784;32;20079;-84
2021/01/27 15:30:34;;;;;;;3.20;1.60;;;;;;;;;;4425682;32;20054;-84
2021/01/27 15:33:02;;;;;;;5.28;1.58;;;;;;;;;;4416354;32;21204;-84
2021/01/27 15:35:32;;;;;;;5.37;1.90;;;;;;;;;;4418812;32;20159;-84
2021/01/27 15:38:08;;;;;;;3.97;1.70;;;;;;;;;;4424969;32;20087;-85
2021/01/27 15:40:37;;;;;;;6.70;1.80;;;;;;;;;;4415965;32;20175;-85
2021/01/27 15:43:06;;;;;;;4.90;1.70;;;;;;;;;;4417156;32;20418;-84
2021/01/27 15:45:39;;;;;;;4.43;1.50;;;;;;;;;;4419604;32;20600;-84
2021/01/27 15:48:08;;;;;;;5.62;1.50;;;;;;;;;;4419042;32;20421;-84
2021/01/27 15:50:37;;;;;;;4.32;1.77;;;;;;;;;;4416323;32;20118;-84
2021/01/27 15:53:05;;;;;;;5.90;1.58;;;;;;;;;;4408262;32;20254;-85
2021/01/27 15:55:35;;;;;;;9.43;2.28;;;;;;;;;;4418588;32;20077;-84
2021/01/27 15:58:04;;;;;;;9.18;1.92;;;;;;;;;;4407955;32;20058;-85
2021/01/27 16:00:32;;;;;;;3.83;1.58;;;;;;;;;;4417648;32;20064;-84
2021/01/27 16:03:01;;;;;;;7.50;2.15;;;;;;;;;;4415351;32;20042;-84
2021/01/27 16:05:31;;;;;;;6.85;2.28;;;;;;;;;;4408868;32;20110;-85
2021/01/27 16:08:00;;;;;;;4.43;1.98;;;;;;;;;;4419686;32;20088;-85
2021/01/27 16:10:29;;;;;;;5.15;1.67;;;;;;;;;;4425814;32;20053;-84
2021/01/27 16:12:58;;;;;;;7.68;1.80;;;;;;;;;;4420224;32;20117;-85
2021/01/27 16:15:28;;;;;;;7.85;2.20;;;;;;;;;;4418378;32;20079;-84
2021/01/27 16:17:57;;;;;;;8.38;2.65;;;;;;;;;;4415285;32;20078;-84
2021/01/27 16:20:25;;;;;;;12.07;3.30;;;;;;;;;;4414571;32;20062;-84
2021/01/27 16:22:54;;;;;;;12.32;3.97;;;;;;;;;;4415973;32;20058;-85
2021/01/27 16:25:30;;;;;;;14.68;3.80;;;;;;;;;;4423782;32;20087;-84
2021/01/27 16:27:59;;;;;;;15.68;4.15;;;;;;;;;;4416256;32;20074;-84
2021/01/27 16:30:29;;;;;;;15.48;4.75;;;;;;;;;;4422551;32;20058;-84
2021/01/27 16:32:57;;;;;;;18.52;5.30;;;;;;;;;;4413256;32;20090;-84
2021/01/27 16:35:28;;;;;;;15.18;5.00;;;;;;;;;;4421268;32;20069;-84
2021/01/27 16:37:57;;;;;;;16.60;4.72;;;;;;;;;;4429408;32;20090;-84
2021/01/27 16:40:26;;;;;;;13.05;3.90;;;;;;;;;;4419499;32;20068;-84
2021/01/27 16:42:58;;;;;;;12.50;4.68;;;;;;;;;;4426676;32;20039;-84
2021/01/27 16:45:28;;;;;;;14.20;4.40;;;;;;;;;;4421150;32;20111;-84
2021/01/27 16:47:57;;;;;;;14.70;4.93;;;;;;;;;;4415543;32;20093;-84
2021/01/27 16:50:25;;;;;;;12.93;4.72;;;;;;;;;;4414747;32;20099;-84
2021/01/27 16:52:54;;;;;;;9.45;4.18;;;;;;;;;;4406827;32;20172;-84
2021/01/27 16:55:23;;;;;;;15.52;4.37;;;;;;;;;;4414440;32;20081;-84
2021/01/27 16:57:52;;;;;;;16.12;4.32;;;;;;;;;;4417378;32;20100;-84
2021/01/27 17:00:41;;;;;;;16.87;4.43;;;;;;;;;;4414847;32;20087;-84
2021/01/27 17:03:11;;;;;;;18.02;4.68;;;;;;;;;;4413045;32;20050;-83
2021/01/27 17:05:43;;;;;;;13.70;4.07;;;;;;;;;;4420402;32;20599;-83
2021/01/27 17:08:12;;;;;;;12.57;4.40;;;;;;;;;;4420138;32;20116;-83
2021/01/27 17:10:41;;;;;;;14.98;3.83;;;;;;;;;;4420238;32;20062;-83
2021/01/27 17:13:10;;;;;;;12.20;3.70;;;;;;;;;;4416629;32;20076;-83
2021/01/27 17:15:39;;;;;;;9.77;4.12;;;;;;;;;;4416172;32;20054;-83
2021/01/27 17:18:08;;;;;;;13.07;4.12;;;;;;;;;;4413491;32;20515;-83
2021/01/27 17:20:38;;;;;;;13.13;4.07;;;;;;;;;;4416989;32;20084;-83
2021/01/27 17:23:07;;;;;;;15.18;4.47;;;;;;;;;;4413465;32;20446;-83
2021/01/27 17:25:38;;;;;;;15.30;4.95;;;;;;;;;;4411860;32;20177;-84
2021/01/27 17:28:06;;;;;;;15.77;4.53;;;;;;;;;;4405006;32;20050;-83
2021/01/27 17:30:35;;;;;;;13.18;4.12;;;;;;;;;;4417240;32;20341;-83
2021/01/27 17:33:04;;;;;;;13.88;4.25;;;;;;;;;;4413810;32;20046;-83
2021/01/27 17:35:34;;;;;;;11.12;3.70;;;;;;;;;;4415094;32;20542;-83
2021/01/27 17:38:02;;;;;;;10.82;4.05;;;;;;;;;;4417348;32;20135;-83
2021/01/27 17:40:31;;;;;;;10.90;4.07;;;;;;;;;;4421721;32;20098;-83
2021/01/27 17:43:01;;;;;;;12.35;4.15;;;;;;;;;;4417044;32;20088;-83
2021/01/27 17:45:31;;;;;;;15.60;4.40;;;;;;;;;;4423420;32;20081;-83
2021/01/27 17:48:00;;;;;;;12.45;4.10;;;;;;;;;;4420699;32;20054;-84
2021/01/27 17:50:30;;;;;;;12.82;4.25;;;;;;;;;;4424169;32;20065;-83
2021/01/27 17:52:59;;;;;;;11.07;3.92;;;;;;;;;;4418335;32;20499;-83
2021/01/27 17:55:29;;;;;;;11.77;3.95;;;;;;;;;;4420102;32;20211;-83
2021/01/27 17:57:57;;;;;;;13.65;4.20;;;;;;;;;;4416460;32;20050;-83
2021/01/27 18:00:27;;;;;;;10.73;3.92;;;;;;;;;;4416885;32;20114;-83
2021/01/27 18:02:57;;;;;;;10.02;3.97;;;;;;;;;;4414726;32;20066;-83
2021/01/27 18:05:30;;;;;;;7.62;3.50;;;;;;;;;;4413442;32;20085;-84
2021/01/27 18:08:01;;;;;;;13.43;3.70;;;;;;;;;;4409043;32;20110;-83
2021/01/27 18:10:30;;;;;;;7.55;3.67;;;;;;;;;;4412343;32;20750;-84
2021/01/27 18:12:59;;;;;;;13.90;4.12;;;;;;;;;;4414138;32;20068;-83
2021/01/27 18:15:28;;;;;;;14.45;4.05;;;;;;;;;;4401958;32;20630;-83
2021/01/27 18:17:57;;;;;;;10.10;3.90;;;;;;;;;;4426494;32;20046;-83
2021/01/27 18:20:27;;;;;;;9.18;3.78;;;;;;;;;;4426661;32;20452;-83